createdAt,value
2022-09-01T00:01:42.284Z,10.29
2022-09-01T00:04:11.328Z,10.29
2022-09-01T00:06:38.618Z,10.23
2022-09-01T00:09:08.969Z,10.21
2022-09-01T00:11:36.751Z,10.17
2022-09-01T00:14:05.874Z,10.13
2022-09-01T00:16:54.021Z,10.10
2022-09-01T00:19:22.051Z,10.11
2022-09-01T00:21:49.048Z,10.12
2022-09-01T00:24:17.914Z,10.09
2022-09-01T00:26:45.995Z,10.10
2022-09-01T00:29:13.778Z,10.12
2022-09-01T00:31:41.421Z,10.05
2022-09-01T00:34:08.388Z,9.98
2022-09-01T00:36:35.202Z,9.96
2022-09-01T00:39:02.095Z,9.95
2022-09-01T00:41:32.436Z,9.92
2022-09-01T00:44:02.180Z,9.90
2022-09-01T00:46:34.009Z,9.87
2022-09-01T00:49:08.278Z,9.80
2022-09-01T00:51:38.500Z,9.80
2022-09-01T00:54:08.869Z,9.78
2022-09-01T00:56:40.973Z,9.74
2022-09-01T00:59:19.730Z,9.78
2022-09-01T01:01:47.051Z,9.78
2022-09-01T01:04:18.027Z,9.74
2022-09-01T01:06:50.616Z,9.74
2022-09-01T01:09:22.159Z,9.70
2022-09-01T01:11:49.265Z,9.61
2022-09-01T01:14:17.442Z,9.67
2022-09-01T01:16:52.094Z,9.61
2022-09-01T01:20:01.262Z,9.61
2022-09-01T01:23:07.793Z,9.64
2022-09-01T01:25:44.686Z,9.68
2022-09-01T01:28:18.745Z,9.68
2022-09-01T01:30:58.099Z,9.65
2022-09-01T01:33:32.095Z,9.62
2022-09-01T01:35:59.947Z,9.60
2022-09-01T01:38:30.185Z,9.64
2022-09-01T01:40:58.215Z,9.69
2022-09-01T01:43:27.675Z,9.63
2022-09-01T01:45:59.039Z,9.63
2022-09-01T01:48:34.504Z,9.66
2022-09-01T01:51:01.947Z,9.61
2022-09-01T01:53:29.536Z,9.62
2022-09-01T01:55:59.053Z,9.61
2022-09-01T01:58:29.224Z,9.58
2022-09-01T02:00:57.389Z,9.58
2022-09-01T02:03:28.907Z,9.68
2022-09-01T02:05:56.135Z,9.70
2022-09-01T02:08:26.202Z,9.56
2022-09-01T02:10:55.489Z,9.49
2022-09-01T02:13:31.344Z,9.39
2022-09-01T02:16:13.087Z,9.33
2022-09-01T02:18:49.849Z,9.17
2022-09-01T02:21:20.626Z,9.04
2022-09-01T02:23:59.551Z,9.15
2022-09-01T02:26:32.228Z,9.11
2022-09-01T02:29:04.789Z,8.98
2022-09-01T02:31:39.907Z,8.88
2022-09-01T02:34:14.015Z,8.84
2022-09-01T02:36:48.412Z,8.79
2022-09-01T02:39:23.279Z,8.82
2022-09-01T02:41:51.294Z,8.81
2022-09-01T02:44:23.759Z,8.75
2022-09-01T02:46:51.253Z,8.70
2022-09-01T02:49:28.690Z,8.64
2022-09-01T02:51:59.630Z,8.56
2022-09-01T02:54:28.817Z,8.54
2022-09-01T02:56:55.627Z,8.51
2022-09-01T02:59:27.501Z,8.49
2022-09-01T03:01:57.802Z,8.48
2022-09-01T03:04:24.990Z,8.48
2022-09-01T03:06:54.849Z,8.44
2022-09-01T03:09:23.048Z,8.54
2022-09-01T03:11:51.954Z,8.58
2022-09-01T03:14:20.336Z,8.50
2022-09-01T03:16:47.647Z,8.46
2022-09-01T03:19:15.185Z,8.45
2022-09-01T03:21:44.404Z,8.41
2022-09-01T03:24:16.815Z,8.36
2022-09-01T03:26:45.569Z,8.32
2022-09-01T03:29:19.291Z,8.34
2022-09-01T03:31:47.097Z,8.33
2022-09-01T03:34:16.480Z,8.34
2022-09-01T03:36:50.903Z,8.31
2022-09-01T03:39:26.239Z,8.28
2022-09-01T03:41:53.985Z,8.31
2022-09-01T03:44:20.948Z,8.30
2022-09-01T03:46:47.788Z,8.31
2022-09-01T03:49:15.688Z,8.39
2022-09-01T03:51:45.135Z,8.43
2022-09-01T03:54:12.448Z,8.47
2022-09-01T03:56:42.977Z,8.49
2022-09-01T03:59:17.239Z,8.49
2022-09-01T04:01:46.767Z,8.41
2022-09-01T04:04:16.573Z,8.33
2022-09-01T04:06:45.526Z,8.31
2022-09-01T04:09:13.886Z,8.36
2022-09-01T04:11:46.389Z,8.37
2022-09-01T04:14:15.205Z,8.39
2022-09-01T04:17:02.352Z,8.38
2022-09-01T04:19:30.670Z,8.31
2022-09-01T04:22:01.174Z,8.33
2022-09-01T04:24:45.031Z,8.27
2022-09-01T04:27:13.711Z,8.17
2022-09-01T04:29:41.867Z,8.09
2022-09-01T04:32:13.168Z,7.94
2022-09-01T04:34:43.649Z,7.91
2022-09-01T04:37:19.488Z,7.84
2022-09-01T04:39:57.149Z,7.84
2022-09-01T04:42:29.075Z,7.80
2022-09-01T04:44:57.681Z,7.75
2022-09-01T04:47:35.437Z,7.72
2022-09-01T04:50:14.887Z,7.65
2022-09-01T04:53:02.138Z,7.83
2022-09-01T04:55:32.184Z,7.82
2022-09-01T04:58:08.308Z,7.81
2022-09-01T05:00:37.418Z,7.86
2022-09-01T05:03:04.860Z,7.78
2022-09-01T05:06:02.594Z,7.68
2022-09-01T05:08:32.717Z,7.81
2022-09-01T05:11:08.009Z,7.71
2022-09-01T05:13:48.085Z,7.68
2022-09-01T05:16:25.101Z,7.71
2022-09-01T05:18:57.954Z,7.79
2022-09-01T05:21:29.939Z,7.75
2022-09-01T05:24:01.453Z,7.77
2022-09-01T05:26:31.190Z,7.85
2022-09-01T05:29:01.326Z,8.32
2022-09-01T05:31:37.950Z,8.40
2022-09-01T05:34:05.486Z,8.25
2022-09-01T05:36:33.589Z,8.22
2022-09-01T05:39:01.914Z,8.13
2022-09-01T05:41:29.342Z,8.18
2022-09-01T05:44:00.543Z,8.23
2022-09-01T05:46:28.797Z,8.16
2022-09-01T05:48:57.541Z,8.23
2022-09-01T05:51:46.381Z,8.33
2022-09-01T05:54:18.663Z,9.28
2022-09-01T05:56:46.131Z,9.79
2022-09-01T05:59:26.620Z,9.96
2022-09-01T06:02:00.904Z,10.37
2022-09-01T06:04:28.036Z,10.62
2022-09-01T06:07:16.395Z,11.58
2022-09-01T06:09:53.791Z,12.45
2022-09-01T06:12:24.039Z,12.24
2022-09-01T06:14:53.970Z,11.99
2022-09-01T06:17:25.307Z,12.14
2022-09-01T06:19:57.073Z,12.77
2022-09-01T06:22:26.848Z,12.53
2022-09-01T06:24:59.483Z,12.90
2022-09-01T06:27:33.190Z,13.66
2022-09-01T06:30:00.331Z,14.14
2022-09-01T06:32:27.998Z,14.56
2022-09-01T06:34:58.258Z,14.44
2022-09-01T06:37:26.875Z,15.11
2022-09-01T06:39:57.943Z,15.03
2022-09-01T06:42:26.171Z,15.41
2022-09-01T06:44:59.851Z,15.93
2022-09-01T06:47:28.721Z,15.96
2022-09-01T06:49:59.021Z,15.51
2022-09-01T06:52:28.199Z,15.44
2022-09-01T06:54:56.014Z,16.15
2022-09-01T07:00:21.087Z,16.80
2022-09-01T07:02:54.832Z,16.90
2022-09-01T07:12:24.499Z,17.54
2022-09-01T07:17:42.353Z,18.08
2022-09-01T07:23:07.065Z,18.06
2022-09-01T07:28:37.958Z,17.81
2022-09-01T07:39:52.013Z,18.75
2022-09-01T07:42:31.425Z,18.17
2022-09-01T07:46:00.512Z,18.87
2022-09-01T07:48:37.240Z,20.21
2022-09-01T07:51:36.997Z,20.42
2022-09-01T07:54:05.968Z,20.26
2022-09-01T07:56:39.418Z,20.56
2022-09-01T07:59:15.309Z,20.22
2022-09-01T08:02:18.349Z,20.59
2022-09-01T08:04:47.036Z,21.16
2022-09-01T08:07:16.327Z,21.46
2022-09-01T08:09:44.630Z,21.48
2022-09-01T08:12:13.436Z,21.33
2022-09-01T08:14:46.774Z,20.87
2022-09-01T08:17:18.411Z,21.19
2022-09-01T08:20:07.425Z,21.63
2022-09-01T08:22:54.616Z,21.42
2022-09-01T08:25:29.162Z,21.72
2022-09-01T08:28:00.297Z,21.95
2022-09-01T08:30:28.663Z,21.58
2022-09-01T08:32:55.854Z,21.97
2022-09-01T08:35:23.463Z,22.19
2022-09-01T08:37:50.562Z,21.77
2022-09-01T08:40:20.772Z,21.90
2022-09-01T08:43:15.479Z,22.03
2022-09-01T08:45:49.780Z,21.71
2022-09-01T08:51:24.700Z,21.93
2022-09-01T08:54:05.015Z,21.76
2022-09-01T08:56:36.135Z,22.08
2022-09-01T08:59:04.239Z,21.64
2022-09-01T09:02:16.181Z,21.96
2022-09-01T09:05:15.589Z,21.43
2022-09-01T09:08:12.562Z,21.92
2022-09-01T09:10:52.254Z,21.94
2022-09-01T09:13:22.322Z,22.08
2022-09-01T09:16:14.471Z,21.76
2022-09-01T09:18:57.765Z,22.08
2022-09-01T09:21:30.249Z,22.01
2022-09-01T09:24:07.236Z,21.89
2022-09-01T09:26:49.331Z,21.80
2022-09-01T09:29:18.153Z,22.03
2022-09-01T09:31:50.357Z,21.78
2022-09-01T09:34:37.773Z,21.17
2022-09-01T09:37:30.622Z,21.77
2022-09-01T09:40:11.131Z,22.02
2022-09-01T09:42:40.591Z,22.01
2022-09-01T09:45:29.727Z,22.27
2022-09-01T09:47:58.199Z,21.41
2022-09-01T09:50:33.580Z,22.02
2022-09-01T09:53:28.690Z,21.99
2022-09-01T09:55:58.185Z,21.89
2022-09-01T09:58:34.698Z,21.33
2022-09-01T10:01:18.185Z,21.34
2022-09-01T10:03:50.472Z,21.81
2022-09-01T10:06:34.552Z,22.48
2022-09-01T10:09:21.579Z,22.35
2022-09-01T10:11:54.601Z,21.45
2022-09-01T10:14:35.583Z,21.19
2022-09-01T10:17:36.653Z,21.27
2022-09-01T10:20:17.639Z,21.22
2022-09-01T10:22:45.164Z,21.32
2022-09-01T10:25:18.015Z,21.33
2022-09-01T10:27:50.448Z,21.46
2022-09-01T10:30:20.540Z,21.03
2022-09-01T10:32:56.392Z,21.32
2022-09-01T10:35:26.798Z,21.36
2022-09-01T10:37:55.901Z,21.47
2022-09-01T10:40:31.013Z,21.44
2022-09-01T10:43:24.529Z,21.65
2022-09-01T10:45:57.668Z,21.46
2022-09-01T10:48:33.832Z,21.17
2022-09-01T10:51:19.278Z,21.36
2022-09-01T10:53:52.800Z,20.83
2022-09-01T10:56:29.469Z,20.46
2022-09-01T10:59:35.716Z,20.36
2022-09-01T11:02:35.641Z,20.39
2022-09-01T11:05:00.764Z,20.84
2022-09-01T11:07:57.964Z,20.99
2022-09-01T11:10:36.095Z,20.63
2022-09-01T11:13:24.202Z,20.69
2022-09-01T11:15:51.968Z,20.82
2022-09-01T11:18:29.409Z,20.99
2022-09-01T11:21:34.385Z,20.73
2022-09-01T11:24:50.851Z,20.77
2022-09-01T11:27:49.657Z,20.94
2022-09-01T11:30:22.586Z,20.39
2022-09-01T11:32:58.393Z,20.77
2022-09-01T11:35:28.458Z,20.46
2022-09-01T11:38:01.866Z,20.33
2022-09-01T11:40:32.905Z,20.94
2022-09-01T11:43:09.748Z,20.83
2022-09-01T11:45:58.465Z,20.63
2022-09-01T11:48:26.975Z,20.35
2022-09-01T11:51:00.961Z,19.96
2022-09-01T11:53:29.077Z,19.82
2022-09-01T11:56:12.034Z,19.52
2022-09-01T11:58:41.895Z,19.51
2022-09-01T12:01:30.911Z,19.13
2022-09-01T12:03:58.950Z,19.18
2022-09-01T12:06:29.530Z,18.92
2022-09-01T12:09:03.963Z,18.87
2022-09-01T12:11:36.953Z,18.78
2022-09-01T12:14:11.094Z,18.84
2022-09-01T12:16:42.614Z,18.65
2022-09-01T12:19:27.546Z,18.88
2022-09-01T12:22:15.172Z,18.83
2022-09-01T12:24:54.223Z,18.84
2022-09-01T12:27:25.214Z,18.91
2022-09-01T12:29:52.276Z,18.64
2022-09-01T12:32:20.064Z,18.69
2022-09-01T12:35:09.192Z,18.74
2022-09-01T12:37:38.571Z,18.46
2022-09-01T12:40:05.752Z,18.49
2022-09-01T12:42:40.996Z,18.44
2022-09-01T12:45:10.939Z,18.46
2022-09-01T12:47:37.757Z,18.77
2022-09-01T12:50:09.224Z,18.48
2022-09-01T12:52:44.915Z,18.50
2022-09-01T12:58:09.799Z,18.36
2022-09-01T13:00:55.867Z,18.60
2022-09-01T13:03:23.420Z,18.37
2022-09-01T13:05:55.568Z,18.49
2022-09-01T13:08:31.491Z,18.54
2022-09-01T13:11:11.172Z,18.00
2022-09-01T13:13:38.673Z,18.22
2022-09-01T13:16:13.085Z,18.26
2022-09-01T13:21:30.368Z,18.05
2022-09-01T13:23:57.581Z,18.03
2022-09-01T13:26:24.474Z,17.87
2022-09-01T13:28:51.725Z,17.71
2022-09-01T13:31:34.506Z,17.71
2022-09-01T13:34:10.687Z,17.67
2022-09-01T13:36:52.057Z,17.63
2022-09-01T13:39:20.937Z,17.64
2022-09-01T13:41:48.725Z,17.52
2022-09-01T13:44:17.315Z,17.45
2022-09-01T13:47:28.310Z,17.49
2022-09-01T13:52:19.747Z,17.52
2022-09-01T13:54:47.851Z,17.65
2022-09-01T13:57:16.514Z,17.63
2022-09-01T13:59:44.364Z,17.53
2022-09-01T14:02:11.244Z,17.60
2022-09-01T14:04:38.584Z,17.39
2022-09-01T14:07:06.298Z,17.45
2022-09-01T14:09:34.825Z,17.44
2022-09-01T14:12:01.743Z,17.37
2022-09-01T14:15:10.650Z,17.24
2022-09-01T14:17:15.694Z,17.02
2022-09-01T14:19:42.532Z,17.34
2022-09-01T14:22:09.474Z,17.49
2022-09-01T14:24:38.866Z,17.30
2022-09-01T14:27:07.836Z,17.30
2022-09-01T14:29:35.049Z,17.37
2022-09-01T14:32:02.210Z,17.25
2022-09-01T14:34:30.791Z,17.16
2022-09-01T14:36:57.899Z,17.11
2022-09-01T14:39:25.538Z,17.28
2022-09-01T14:41:52.370Z,17.33
2022-09-01T14:44:19.105Z,17.34
2022-09-01T14:46:47.314Z,17.29
2022-09-01T14:49:20.204Z,17.14
2022-09-01T14:54:49.529Z,17.11
2022-09-01T14:57:37.068Z,17.13
2022-09-01T15:00:05.882Z,16.94
2022-09-01T15:02:33.289Z,17.17
2022-09-01T15:05:00.149Z,17.03
2022-09-01T15:07:26.983Z,16.93
2022-09-01T15:09:53.953Z,16.94
2022-09-01T15:12:22.424Z,16.93
2022-09-01T15:14:49.245Z,17.05
2022-09-01T15:17:16.073Z,16.82
2022-09-01T15:19:43.646Z,16.85
2022-09-01T15:22:13.000Z,16.93
2022-09-01T15:24:40.000Z,16.84
2022-09-01T15:27:10.132Z,16.85
2022-09-01T15:29:45.945Z,16.73
2022-09-01T15:32:20.559Z,16.59
2022-09-01T15:34:54.493Z,16.56
2022-09-01T15:37:21.299Z,16.60
2022-09-01T15:39:48.081Z,16.56
2022-09-01T15:42:17.434Z,16.65
2022-09-01T15:44:44.746Z,16.71
2022-09-01T15:47:11.453Z,16.52
2022-09-01T15:49:38.200Z,16.49
2022-09-01T15:52:04.926Z,16.56
2022-09-01T15:54:31.842Z,16.32
2022-09-01T15:56:58.591Z,16.50
2022-09-01T15:59:25.448Z,16.53
2022-09-01T16:01:54.095Z,16.41
2022-09-01T16:04:25.409Z,16.42
2022-09-01T16:06:56.698Z,16.16
2022-09-01T16:09:25.647Z,16.25
2022-09-01T16:11:53.982Z,16.49
2022-09-01T16:14:21.240Z,16.43
2022-09-01T16:16:47.965Z,16.45
2022-09-01T16:19:33.511Z,16.19
2022-09-01T16:22:18.454Z,16.16
2022-09-01T16:24:47.990Z,16.16
2022-09-01T16:27:21.498Z,16.16
2022-09-01T16:30:02.943Z,16.13
2022-09-01T16:32:31.549Z,16.17
2022-09-01T16:34:58.317Z,16.19
2022-09-01T16:37:36.013Z,15.99
2022-09-01T16:40:16.491Z,16.18
2022-09-01T16:42:58.477Z,16.22
2022-09-01T16:45:30.934Z,16.16
2022-09-01T16:48:17.625Z,16.03
2022-09-01T16:50:51.609Z,15.93
2022-09-01T16:53:26.934Z,16.10
2022-09-01T16:55:59.645Z,16.10
2022-09-01T16:58:39.293Z,15.96
2022-09-01T17:01:15.575Z,15.92
2022-09-01T17:04:02.725Z,15.79
2022-09-01T17:06:33.637Z,15.85
2022-09-01T17:09:09.982Z,15.71
2022-09-01T17:11:49.256Z,15.69
2022-09-01T17:14:31.563Z,15.73
2022-09-01T17:17:12.114Z,15.84
2022-09-01T17:19:45.394Z,15.67
2022-09-01T17:22:14.518Z,15.71
2022-09-01T17:24:45.137Z,15.69
2022-09-01T17:27:20.935Z,15.73
2022-09-01T17:29:53.260Z,15.58
2022-09-01T17:32:30.987Z,15.66
2022-09-01T17:35:07.791Z,15.61
2022-09-01T17:37:51.746Z,15.65
2022-09-01T17:40:42.193Z,15.60
2022-09-01T17:43:21.118Z,15.59
2022-09-01T17:46:28.489Z,15.60
2022-09-01T17:49:27.558Z,15.55
2022-09-01T17:52:20.509Z,15.52
2022-09-01T17:55:07.170Z,15.52
2022-09-01T17:58:00.482Z,15.57
2022-09-01T18:00:52.716Z,15.51
2022-09-01T18:03:52.683Z,15.43
2022-09-01T18:06:25.114Z,15.44
2022-09-01T18:08:55.560Z,15.41
2022-09-01T18:11:35.776Z,15.41
2022-09-01T18:14:08.793Z,15.44
2022-09-01T18:16:44.052Z,15.28
2022-09-01T18:19:21.086Z,15.25
2022-09-01T18:22:01.413Z,15.21
2022-09-01T18:24:55.929Z,15.21
2022-09-01T18:27:24.636Z,15.14
2022-09-01T18:29:53.043Z,15.14
2022-09-01T18:32:35.081Z,15.06
2022-09-01T18:35:01.798Z,15.02
2022-09-01T18:38:01.393Z,15.01
2022-09-01T18:40:51.302Z,14.93
2022-09-01T18:43:26.919Z,14.89
2022-09-01T18:46:37.365Z,14.85
2022-09-01T18:49:24.883Z,14.90
2022-09-01T18:52:05.267Z,14.79
2022-09-01T18:54:38.235Z,14.78
2022-09-01T18:57:07.689Z,14.70
2022-09-01T18:59:56.277Z,14.65
2022-09-01T19:02:23.632Z,14.69
2022-09-01T19:04:57.541Z,14.68
2022-09-01T19:07:39.683Z,14.63
2022-09-01T19:10:06.555Z,14.51
2022-09-01T19:12:48.890Z,14.47
2022-09-01T19:15:35.093Z,14.46
2022-09-01T19:18:13.462Z,14.42
2022-09-01T19:21:06.469Z,14.40
2022-09-01T19:23:51.652Z,14.37
2022-09-01T19:26:22.651Z,14.34
2022-09-01T19:29:05.234Z,14.31
2022-09-01T19:31:35.146Z,14.24
2022-09-01T19:34:25.628Z,14.23
2022-09-01T19:36:56.141Z,14.15
2022-09-01T19:39:50.873Z,14.15
2022-09-01T19:42:20.121Z,14.20
2022-09-01T19:45:25.864Z,14.24
2022-09-01T19:48:04.278Z,14.17
2022-09-01T19:50:48.576Z,14.17
2022-09-01T19:53:32.973Z,14.03
2022-09-01T19:56:02.473Z,14.08
2022-09-01T19:58:51.672Z,13.99
2022-09-01T20:01:30.747Z,13.98
2022-09-01T20:04:11.514Z,14.01
2022-09-01T20:06:43.440Z,13.96
2022-09-01T20:09:23.227Z,13.86
2022-09-01T20:11:59.002Z,13.91
2022-09-01T20:14:25.718Z,13.87
2022-09-01T20:16:57.847Z,13.80
2022-09-01T20:22:41.227Z,13.80
2022-09-01T20:25:13.292Z,13.78
2022-09-01T20:27:56.169Z,13.76
2022-09-01T20:30:29.494Z,13.71
2022-09-01T20:33:41.832Z,13.73
2022-09-01T20:36:25.049Z,13.66
2022-09-01T20:39:21.248Z,13.67
2022-09-01T20:42:08.398Z,13.62
2022-09-01T20:44:48.215Z,13.60
2022-09-01T20:47:15.076Z,13.60
2022-09-01T20:49:42.444Z,13.62
2022-09-01T20:52:27.871Z,13.60
2022-09-01T20:55:04.174Z,13.60
2022-09-01T20:57:47.383Z,13.58
2022-09-01T21:00:25.847Z,13.56
2022-09-01T21:03:02.780Z,13.49
2022-09-01T21:05:36.121Z,13.58
2022-09-01T21:08:14.061Z,13.55
2022-09-01T21:10:40.906Z,13.52
2022-09-01T21:14:08.923Z,13.50
2022-09-01T21:16:56.372Z,13.54
2022-09-01T21:19:28.221Z,13.49
2022-09-01T21:22:07.014Z,13.47
2022-09-01T21:24:35.005Z,13.46
2022-09-01T21:27:07.329Z,13.44
2022-09-01T21:29:55.712Z,13.42
2022-09-01T21:32:23.243Z,13.39
2022-09-01T21:34:50.671Z,13.43
2022-09-01T21:37:18.584Z,13.41
2022-09-01T21:39:45.409Z,13.36
2022-09-01T21:42:13.138Z,13.32
2022-09-01T21:44:41.251Z,13.35
2022-09-01T21:47:08.387Z,13.33
2022-09-01T21:49:35.290Z,13.33
2022-09-01T21:52:02.481Z,13.34
2022-09-01T21:54:29.302Z,13.31
2022-09-01T21:56:56.226Z,13.30
2022-09-01T21:59:23.202Z,13.31
2022-09-01T22:01:49.988Z,13.28
2022-09-01T22:04:18.313Z,13.26
2022-09-01T22:06:46.435Z,13.26
2022-09-01T22:09:20.342Z,13.26
2022-09-01T22:11:49.190Z,13.25
2022-09-01T22:14:16.190Z,13.21
2022-09-01T22:16:43.071Z,13.20
2022-09-01T22:19:09.880Z,13.21
2022-09-01T22:21:37.891Z,13.20
2022-09-01T22:24:05.808Z,13.18
2022-09-01T22:26:34.112Z,13.23
2022-09-01T22:29:04.697Z,13.22
2022-09-01T22:31:33.254Z,13.23
2022-09-01T22:34:01.113Z,13.18
2022-09-01T22:36:31.470Z,13.16
2022-09-01T22:38:59.729Z,13.16
2022-09-01T22:41:28.985Z,13.13
2022-09-01T22:43:57.944Z,13.08
2022-09-01T22:46:27.805Z,13.10
2022-09-01T22:48:59.036Z,13.08
2022-09-01T22:51:26.993Z,13.08
2022-09-01T22:53:54.660Z,13.02
2022-09-01T22:56:28.148Z,13.02
2022-09-01T22:58:57.924Z,13.00
2022-09-01T23:01:30.130Z,13.01
2022-09-01T23:04:00.133Z,12.92
2022-09-01T23:06:29.715Z,12.95
2022-09-01T23:08:59.381Z,12.84
2022-09-01T23:11:27.106Z,12.85
2022-09-01T23:13:54.847Z,12.83
2022-09-01T23:16:23.185Z,12.74
2022-09-01T23:18:51.483Z,12.72
2022-09-01T23:21:21.913Z,12.74
2022-09-01T23:23:48.889Z,12.72
2022-09-01T23:26:26.354Z,12.69
2022-09-01T23:28:53.248Z,12.71
2022-09-01T23:31:24.672Z,12.64
2022-09-01T23:33:51.582Z,12.67
2022-09-01T23:36:20.606Z,12.57
2022-09-01T23:38:48.021Z,12.55
2022-09-01T23:41:23.364Z,12.59
2022-09-01T23:43:51.745Z,12.52
2022-09-01T23:46:21.612Z,12.56
2022-09-01T23:48:48.463Z,12.35
2022-09-01T23:51:17.997Z,12.35
2022-09-01T23:53:46.550Z,12.30
2022-09-01T23:56:16.327Z,12.28
2022-09-01T23:58:43.679Z,12.20
